Hovedside
METAR-TAF:

METAR-TAF

Lufthavner :

Tillamook, Oregon, USA

breddegrad: 45-25-06N, lengdegrad: 123-48-52W, høyde over havet: 11 m

Gjeldene værobservasjon

Denne rapporten ble laget for 10 minutter siden, klokken 11:15 UTC
Flau vind
Temperatur 9°C
Luftfuktighet 93%
Trykk 1007 hPa
Sikt: 8.0 km
Overskyet i en høyde av 2500 ft
lett duskregn

METAR: KTMK 071115Z AUTO 00000KT 5SM -DZ OVC025 09/08 A2974 RMK AO2

Tid: 03:25 (11:25 UTC)


TAF: fraværende

Værobservasjoner og værvarsel for over 4000 flyplasser (METAR- og TAF-rapporter).

Tilgjengelige stasjoner er representert av de røde og gule prikkene på kartet.

Hold musepekeren over prikken for å se navnet på stasjonen.

Klikk så for å se værobservasjoner og -varsler.

For å forandre kartet kan du klikke på den grønne knappen med svart kryss for å zoome inn, på den grønne knappen med strek for å zoome ut, eller på de grønne pilene for å se tilstøtende kart.


METAR-TAF: